createdAt,value
2019-01-31T00:00:02.242Z,100533.84
2019-01-31T00:02:52.924Z,100537.12
2019-01-31T00:05:28.484Z,100533.34
2019-01-31T00:08:22.468Z,100529.54
2019-01-31T00:11:00.529Z,100524.11
2019-01-31T00:13:36.489Z,100526.98
2019-01-31T00:16:15.007Z,100527.40
2019-01-31T00:18:56.797Z,100530.73
2019-01-31T00:21:35.720Z,100519.00
2019-01-31T00:24:11.699Z,100520.22
2019-01-31T00:26:53.551Z,100518.92
2019-01-31T00:29:45.635Z,100518.87
2019-01-31T00:32:18.652Z,100520.12
2019-01-31T00:35:00.473Z,100515.11
2019-01-31T00:37:51.370Z,100518.03
2019-01-31T00:40:45.963Z,100518.40
2019-01-31T00:43:38.541Z,100515.44
2019-01-31T00:46:23.325Z,100520.86
2019-01-31T00:48:56.015Z,100512.09
2019-01-31T00:51:48.537Z,100518.35
2019-01-31T00:54:44.412Z,100521.69
2019-01-31T00:57:39.186Z,100507.50
2019-01-31T01:00:45.476Z,100515.84
2019-01-31T01:03:30.454Z,100516.68
2019-01-31T01:06:12.636Z,100510.37
2019-01-31T01:08:54.164Z,100505.77
2019-01-31T01:11:58.314Z,100507.44
2019-01-31T01:14:45.889Z,100504.06
2019-01-31T01:17:30.395Z,100506.98
2019-01-31T01:20:12.397Z,100506.56
2019-01-31T01:22:53.935Z,100508.22
2019-01-31T01:25:28.223Z,100508.17
2019-01-31T01:28:16.625Z,100507.30
2019-01-31T01:30:55.179Z,100503.11
2019-01-31T01:33:51.552Z,100508.06
2019-01-31T01:36:35.991Z,100497.59
2019-01-31T01:39:18.833Z,100494.66
2019-01-31T01:41:45.825Z,100496.69
2019-01-31T01:44:27.521Z,100495.02
2019-01-31T01:47:14.948Z,100485.41
2019-01-31T01:49:53.256Z,100490.79
2019-01-31T01:52:31.872Z,100492.83
2019-01-31T01:55:07.382Z,100489.48
2019-01-31T01:58:07.483Z,100491.98
2019-01-31T02:00:52.399Z,100486.92
2019-01-31T02:03:46.143Z,100485.23
2019-01-31T02:06:41.557Z,100481.44
2019-01-31T02:09:38.225Z,100480.17
2019-01-31T02:12:36.457Z,100477.61
2019-01-31T02:15:21.477Z,100476.72
2019-01-31T02:17:56.823Z,100475.05
2019-01-31T02:20:32.163Z,100476.77
2019-01-31T02:23:04.847Z,100472.13
2019-01-31T02:25:55.867Z,100477.55
2019-01-31T02:28:31.474Z,100476.67
2019-01-31T02:31:06.703Z,100482.88
2019-01-31T02:33:45.315Z,100479.94
2019-01-31T02:36:41.975Z,100472.36
2019-01-31T02:39:23.843Z,100474.41
2019-01-31T02:42:17.994Z,100467.66
2019-01-31T02:44:56.665Z,100461.38
2019-01-31T02:47:47.724Z,100461.39
2019-01-31T02:50:36.883Z,100453.49
2019-01-31T02:53:12.845Z,100448.42
2019-01-31T02:55:51.256Z,100446.28
2019-01-31T02:58:33.376Z,100455.05
2019-01-31T03:01:21.898Z,100446.68
2019-01-31T03:04:12.906Z,100450.44
2019-01-31T03:06:51.757Z,100444.55
2019-01-31T03:09:54.613Z,100448.77
2019-01-31T03:12:23.125Z,100446.64
2019-01-31T03:14:55.838Z,100444.59
2019-01-31T03:17:34.469Z,100441.27
2019-01-31T03:20:28.213Z,100438.77
2019-01-31T03:23:06.648Z,100434.14
2019-01-31T03:25:54.443Z,100434.09
2019-01-31T03:28:42.069Z,100428.23
2019-01-31T03:31:20.798Z,100428.65
2019-01-31T03:34:05.481Z,100430.70
2019-01-31T03:36:50.244Z,100429.91
2019-01-31T03:39:43.546Z,100424.44
2019-01-31T03:42:19.167Z,100424.44
2019-01-31T03:44:55.266Z,100428.60
2019-01-31T03:47:42.727Z,100429.42
2019-01-31T03:50:15.410Z,100427.28
2019-01-31T03:53:04.785Z,100430.61
2019-01-31T03:55:43.296Z,100431.39
2019-01-31T03:58:37.266Z,100421.72
2019-01-31T04:01:43.249Z,100420.45
2019-01-31T04:04:15.974Z,100425.00
2019-01-31T04:06:46.364Z,100430.41
2019-01-31T04:09:18.543Z,100434.13
2019-01-31T04:11:48.451Z,100431.17
2019-01-31T04:14:18.635Z,100428.62
2019-01-31T04:16:48.263Z,100427.35
2019-01-31T04:19:17.959Z,100425.20
2019-01-31T04:21:47.588Z,100425.20
2019-01-31T04:24:17.724Z,100429.39
2019-01-31T04:26:47.510Z,100426.88
2019-01-31T04:29:17.136Z,100423.16
2019-01-31T04:31:46.881Z,100425.28
2019-01-31T04:34:17.315Z,100432.39
2019-01-31T04:36:47.102Z,100427.86
2019-01-31T04:39:16.853Z,100427.08
2019-01-31T04:41:46.613Z,100425.47
2019-01-31T04:44:17.825Z,100422.97
2019-01-31T04:46:47.465Z,100428.81
2019-01-31T04:49:17.751Z,100424.63
2019-01-31T04:51:47.617Z,100420.44
2019-01-31T04:54:18.185Z,100419.97
2019-01-31T04:56:47.879Z,100419.13
2019-01-31T04:59:17.511Z,100419.08
2019-01-31T05:01:47.507Z,100420.73
2019-01-31T05:04:18.084Z,100415.31
2019-01-31T05:06:48.141Z,100413.21
2019-01-31T05:09:18.062Z,100414.88
2019-01-31T05:11:47.723Z,100409.45
2019-01-31T05:14:17.479Z,100412.80
2019-01-31T05:16:47.233Z,100410.77
2019-01-31T05:19:16.925Z,100412.43
2019-01-31T05:21:46.563Z,100422.05
2019-01-31T05:24:17.058Z,100419.98
2019-01-31T05:26:46.880Z,100419.19
2019-01-31T05:29:17.005Z,100417.09
2019-01-31T05:31:48.253Z,100420.44
2019-01-31T05:34:18.116Z,100420.39
2019-01-31T05:36:47.734Z,100416.20
2019-01-31T05:39:17.471Z,100414.11
2019-01-31T05:41:47.437Z,100414.94
2019-01-31T05:44:17.990Z,100414.06
2019-01-31T05:46:47.745Z,100417.82
2019-01-31T05:49:17.415Z,100415.31
2019-01-31T05:51:47.424Z,100414.48
2019-01-31T05:54:18.187Z,100412.43
2019-01-31T05:56:47.996Z,100408.66
2019-01-31T05:59:17.628Z,100407.00
2019-01-31T06:01:47.554Z,100406.17
2019-01-31T06:04:17.806Z,100404.02
2019-01-31T06:06:47.507Z,100406.94
2019-01-31T06:09:17.427Z,100409.03
2019-01-31T06:11:47.891Z,100404.44
2019-01-31T06:14:17.589Z,100410.28
2019-01-31T06:16:47.331Z,100409.45
2019-01-31T06:19:18.523Z,100413.21
2019-01-31T06:21:48.458Z,100410.66
2019-01-31T06:24:18.363Z,100415.66
2019-01-31T06:26:48.952Z,100416.36
2019-01-31T06:29:18.748Z,100423.75
2019-01-31T06:31:48.384Z,100417.47
2019-01-31T06:34:18.099Z,100422.89
2019-01-31T06:36:47.730Z,100423.75
2019-01-31T06:39:20.094Z,100422.95
2019-01-31T06:41:49.216Z,100425.84
2019-01-31T06:44:18.954Z,100431.39
2019-01-31T06:46:48.585Z,100434.39
2019-01-31T06:49:18.311Z,100433.58
2019-01-31T06:51:47.971Z,100434.83
2019-01-31T06:54:18.087Z,100443.66
2019-01-31T06:56:48.183Z,100441.98
2019-01-31T06:59:17.873Z,100437.81
2019-01-31T07:01:47.618Z,100436.98
2019-01-31T07:04:17.321Z,100439.91
2019-01-31T07:06:48.823Z,100446.61
2019-01-31T07:09:20.777Z,100444.98
2019-01-31T07:11:50.436Z,100441.71
2019-01-31T07:14:20.353Z,100445.11
2019-01-31T07:16:51.091Z,100443.81
2019-01-31T07:19:20.797Z,100444.70
2019-01-31T07:21:50.746Z,100448.89
2019-01-31T07:24:20.370Z,100452.64
2019-01-31T07:26:50.042Z,100448.88
2019-01-31T07:29:19.979Z,100453.89
2019-01-31T07:31:49.735Z,100452.59
2019-01-31T07:34:19.467Z,100452.16
2019-01-31T07:36:49.579Z,100452.94
2019-01-31T07:39:19.198Z,100448.28
2019-01-31T07:41:48.900Z,100449.88
2019-01-31T07:44:19.451Z,100447.36
2019-01-31T07:46:49.076Z,100458.59
2019-01-31T07:49:18.879Z,100455.61
2019-01-31T07:51:48.513Z,100459.78
2019-01-31T07:54:18.267Z,100458.04
2019-01-31T07:56:48.284Z,100464.72
2019-01-31T07:59:17.919Z,100463.34
2019-01-31T08:01:47.675Z,100462.84
2019-01-31T08:04:17.481Z,100455.61
2019-01-31T08:06:47.109Z,100458.40
2019-01-31T08:09:16.740Z,100458.23
2019-01-31T08:11:52.792Z,100463.03
2019-01-31T08:14:18.175Z,100462.55
2019-01-31T08:16:47.978Z,100469.61
2019-01-31T08:19:18.699Z,100467.10
2019-01-31T08:21:48.325Z,100471.75
2019-01-31T08:24:18.274Z,100474.33
2019-01-31T08:26:48.308Z,100469.38
2019-01-31T08:29:17.944Z,100471.07
2019-01-31T08:31:48.678Z,100479.50
2019-01-31T08:34:18.214Z,100474.07
2019-01-31T08:36:47.966Z,100476.16
2019-01-31T08:39:18.641Z,100481.61
2019-01-31T08:41:48.323Z,100480.77
2019-01-31T08:44:18.298Z,100481.18
2019-01-31T08:46:48.490Z,100480.75
2019-01-31T08:49:18.230Z,100484.09
2019-01-31T08:51:47.974Z,100491.92
2019-01-31T08:54:17.613Z,100482.14
2019-01-31T08:56:47.355Z,100492.17
2019-01-31T08:59:17.468Z,100484.19
2019-01-31T09:01:48.103Z,100489.19
2019-01-31T09:04:17.965Z,100483.34
2019-01-31T09:06:47.593Z,100491.70
2019-01-31T09:09:17.404Z,100490.88
2019-01-31T09:11:47.146Z,100490.52
2019-01-31T09:14:16.842Z,100497.28
2019-01-31T09:16:46.465Z,100496.45
2019-01-31T09:19:16.238Z,100497.69
2019-01-31T09:21:47.461Z,100498.88
2019-01-31T09:24:22.909Z,100496.72
2019-01-31T09:27:04.473Z,100501.25
2019-01-31T09:29:46.303Z,100494.95
2019-01-31T09:32:36.825Z,100498.96
2019-01-31T09:35:15.557Z,100498.88
2019-01-31T09:38:11.077Z,100499.72
2019-01-31T09:41:02.236Z,100497.75
2019-01-31T09:44:06.630Z,100497.48
2019-01-31T09:46:42.272Z,100502.22
2019-01-31T09:49:32.415Z,100503.58
2019-01-31T09:52:35.653Z,100497.01
2019-01-31T09:55:08.365Z,100491.98
2019-01-31T09:57:43.827Z,100486.48
2019-01-31T10:00:27.580Z,100486.48
2019-01-31T10:02:59.356Z,100477.62
2019-01-31T10:05:54.973Z,100474.14
2019-01-31T10:08:33.773Z,100476.91
2019-01-31T10:11:28.097Z,100467.95
2019-01-31T10:14:12.823Z,100469.08
2019-01-31T10:16:54.400Z,100466.48
2019-01-31T10:19:42.110Z,100467.33
2019-01-31T10:22:34.928Z,100467.30
2019-01-31T10:25:23.026Z,100466.48
2019-01-31T10:28:16.393Z,100466.33
2019-01-31T10:30:52.257Z,100459.53
2019-01-31T10:33:37.475Z,100459.53
2019-01-31T10:36:25.626Z,100456.27
2019-01-31T10:39:10.057Z,100459.20
2019-01-31T10:42:17.354Z,100465.55
2019-01-31T10:45:06.999Z,100456.41
2019-01-31T10:47:42.687Z,100443.46
2019-01-31T10:50:37.902Z,100443.80
2019-01-31T10:53:16.543Z,100445.48
2019-01-31T10:55:59.473Z,100450.63
2019-01-31T10:58:48.267Z,100445.22
2019-01-31T11:01:36.872Z,100446.05
2019-01-31T11:04:27.916Z,100444.42
2019-01-31T11:07:09.178Z,100439.34
2019-01-31T11:09:42.958Z,100432.62
2019-01-31T11:12:21.268Z,100431.66
2019-01-31T11:15:02.934Z,100432.47
2019-01-31T11:18:02.023Z,100437.52
2019-01-31T11:20:39.013Z,100432.56
2019-01-31T11:23:14.586Z,100431.78
2019-01-31T11:26:06.677Z,100432.70
2019-01-31T11:28:48.399Z,100436.92
2019-01-31T11:31:34.908Z,100434.53
2019-01-31T11:34:16.621Z,100443.59
2019-01-31T11:36:58.603Z,100434.65
2019-01-31T11:39:48.450Z,100438.01
2019-01-31T11:42:27.168Z,100440.50
2019-01-31T11:45:18.820Z,100439.66
2019-01-31T11:48:03.611Z,100443.84
2019-01-31T11:50:55.979Z,100438.84
2019-01-31T11:53:42.704Z,100442.19
2019-01-31T11:56:22.004Z,100437.64
2019-01-31T11:59:03.433Z,100443.94
2019-01-31T12:01:33.597Z,100433.87
2019-01-31T12:04:06.002Z,100438.42
2019-01-31T12:06:36.031Z,100431.64
2019-01-31T12:09:08.973Z,100438.27
2019-01-31T12:11:39.719Z,100434.08
2019-01-31T12:14:10.169Z,100437.42
2019-01-31T12:16:41.485Z,100433.25
2019-01-31T12:19:13.982Z,100432.80
2019-01-31T12:21:43.947Z,100436.91
2019-01-31T12:24:16.412Z,100433.17
2019-01-31T12:26:45.498Z,100434.75
2019-01-31T12:29:16.083Z,100438.02
2019-01-31T12:31:45.885Z,100439.18
2019-01-31T12:34:15.660Z,100432.05
2019-01-31T12:36:45.506Z,100429.07
2019-01-31T12:39:15.450Z,100431.98
2019-01-31T12:41:45.087Z,100433.65
2019-01-31T12:44:15.507Z,100436.92
2019-01-31T12:46:45.718Z,100432.23
2019-01-31T12:49:16.276Z,100434.33
2019-01-31T12:51:45.973Z,100428.89
2019-01-31T12:54:16.612Z,100424.34
2019-01-31T12:56:46.701Z,100425.62
2019-01-31T12:59:18.500Z,100424.45
2019-01-31T13:01:48.366Z,100428.62
2019-01-31T13:04:20.450Z,100429.00
2019-01-31T13:06:49.967Z,100427.23
2019-01-31T13:09:20.632Z,100427.64
2019-01-31T13:11:50.379Z,100426.38
2019-01-31T13:14:20.055Z,100423.87
2019-01-31T13:16:49.688Z,100421.27
2019-01-31T13:19:22.513Z,100416.57
2019-01-31T13:21:52.392Z,100416.63
2019-01-31T13:24:22.066Z,100415.80
2019-01-31T13:26:51.778Z,100413.55
2019-01-31T13:29:21.840Z,100403.33
2019-01-31T13:31:51.945Z,100399.05
2019-01-31T13:34:22.149Z,100408.98
2019-01-31T13:36:52.055Z,100408.47
2019-01-31T13:39:22.207Z,100402.52
2019-01-31T13:41:52.575Z,100412.98
2019-01-31T13:44:23.311Z,100409.32
2019-01-31T13:46:52.949Z,100413.27
2019-01-31T13:49:22.748Z,100418.16
2019-01-31T13:51:52.838Z,100421.70
2019-01-31T13:54:22.589Z,100420.17
2019-01-31T13:56:52.342Z,100415.30
2019-01-31T13:59:22.092Z,100411.20
2019-01-31T14:01:51.714Z,100391.12
2019-01-31T14:04:22.354Z,100396.16
2019-01-31T14:06:53.205Z,100393.70
2019-01-31T14:09:22.965Z,100397.89
2019-01-31T14:11:52.557Z,100389.92
2019-01-31T14:14:22.332Z,100398.64
2019-01-31T14:16:53.323Z,100407.87
2019-01-31T14:19:24.114Z,100417.97
2019-01-31T14:21:53.901Z,100421.36
2019-01-31T14:24:24.308Z,100423.12
2019-01-31T14:26:54.138Z,100424.78
2019-01-31T14:29:25.464Z,100423.17
2019-01-31T14:31:56.036Z,100423.67
2019-01-31T14:34:26.523Z,100423.67
2019-01-31T14:36:56.475Z,100420.73
2019-01-31T14:39:26.064Z,100415.66
2019-01-31T14:41:55.876Z,100415.23
2019-01-31T14:44:25.586Z,100415.23
2019-01-31T14:46:55.785Z,100416.77
2019-01-31T14:49:25.517Z,100409.98
2019-01-31T14:51:55.142Z,100417.02
2019-01-31T14:54:25.062Z,100415.75
2019-01-31T14:56:55.140Z,100417.89
2019-01-31T14:59:24.864Z,100413.31
2019-01-31T15:01:54.882Z,100415.50
2019-01-31T15:04:24.792Z,100415.98
2019-01-31T15:06:54.786Z,100416.46
2019-01-31T15:09:24.874Z,100417.74
2019-01-31T15:11:54.507Z,100418.22
2019-01-31T15:14:31.465Z,100420.35
2019-01-31T15:16:56.622Z,100422.44
2019-01-31T15:19:26.284Z,100421.19
2019-01-31T15:21:56.115Z,100420.33
2019-01-31T15:24:26.033Z,100422.02
2019-01-31T15:26:56.570Z,100421.98
2019-01-31T15:29:28.859Z,100424.95
2019-01-31T15:31:58.503Z,100419.09
2019-01-31T15:34:28.149Z,100425.86
2019-01-31T15:36:57.819Z,100421.23
2019-01-31T15:39:27.630Z,100417.84
2019-01-31T15:41:57.640Z,100410.36
2019-01-31T15:44:27.756Z,100422.11
2019-01-31T15:46:57.395Z,100425.95
2019-01-31T15:49:27.293Z,100426.02
2019-01-31T15:51:57.276Z,100436.92
2019-01-31T15:54:28.382Z,100427.76
2019-01-31T15:56:58.082Z,100431.14
2019-01-31T15:59:28.674Z,100439.50
2019-01-31T16:01:58.310Z,100447.88
2019-01-31T16:04:27.953Z,100453.30
2019-01-31T16:06:57.814Z,100446.20
2019-01-31T16:09:28.207Z,100448.28
2019-01-31T16:11:59.759Z,100447.47
2019-01-31T16:14:31.013Z,100457.52
2019-01-31T16:17:02.574Z,100456.73
2019-01-31T16:19:32.201Z,100453.39
2019-01-31T16:22:01.897Z,100451.36
2019-01-31T16:24:31.713Z,100453.87
2019-01-31T16:27:03.753Z,100450.95
2019-01-31T16:29:33.442Z,100456.88
2019-01-31T16:32:04.089Z,100452.28
2019-01-31T16:34:34.194Z,100450.63
2019-01-31T16:37:03.970Z,100443.51
2019-01-31T16:39:33.811Z,100450.19
2019-01-31T16:42:03.942Z,100451.45
2019-01-31T16:44:33.618Z,100445.58
2019-01-31T16:47:03.492Z,100445.98
2019-01-31T16:49:34.770Z,100447.23
2019-01-31T16:52:05.403Z,100443.13
2019-01-31T16:54:35.623Z,100445.64
2019-01-31T16:57:06.503Z,100442.30
2019-01-31T16:59:36.547Z,100438.13
2019-01-31T17:02:07.007Z,100440.64
2019-01-31T17:04:36.642Z,100438.19
2019-01-31T17:07:06.592Z,100439.03
2019-01-31T17:09:39.192Z,100434.08
2019-01-31T17:12:07.550Z,100432.42
2019-01-31T17:14:39.798Z,100436.75
2019-01-31T17:17:09.986Z,100447.64
2019-01-31T17:19:39.664Z,100447.64
2019-01-31T17:22:09.432Z,100444.30
2019-01-31T17:24:39.146Z,100438.84
2019-01-31T17:27:08.901Z,100445.52
2019-01-31T17:29:41.254Z,100447.98
2019-01-31T17:32:13.850Z,100443.73
2019-01-31T17:34:43.485Z,100448.34
2019-01-31T17:37:13.213Z,100442.47
2019-01-31T17:39:42.922Z,100438.70
2019-01-31T17:42:12.626Z,100439.10
2019-01-31T17:44:42.404Z,100443.30
2019-01-31T17:47:12.207Z,100437.44
2019-01-31T17:49:41.916Z,100436.61
2019-01-31T17:52:13.172Z,100436.19
2019-01-31T17:54:42.810Z,100433.32
2019-01-31T17:57:12.460Z,100435.42
2019-01-31T17:59:42.124Z,100434.66
2019-01-31T18:02:11.769Z,100431.73
2019-01-31T18:04:41.414Z,100432.98
2019-01-31T18:07:13.579Z,100433.00
2019-01-31T18:09:43.675Z,100429.98
2019-01-31T18:12:13.265Z,100435.27
2019-01-31T18:14:42.946Z,100434.45
2019-01-31T18:17:12.711Z,100433.70
2019-01-31T18:19:42.607Z,100429.98
2019-01-31T18:22:12.270Z,100432.52
2019-01-31T18:24:42.599Z,100432.97
2019-01-31T18:27:12.247Z,100432.16
2019-01-31T18:29:42.113Z,100432.14
2019-01-31T18:32:12.090Z,100432.56
2019-01-31T18:34:41.544Z,100432.14
2019-01-31T18:37:12.867Z,100432.98
2019-01-31T18:39:42.576Z,100429.23
2019-01-31T18:42:12.826Z,100435.52
2019-01-31T18:44:43.747Z,100438.03
2019-01-31T18:47:13.728Z,100428.86
2019-01-31T18:49:43.360Z,100432.58
2019-01-31T18:52:13.100Z,100432.56
2019-01-31T18:54:42.845Z,100427.55
2019-01-31T18:57:13.744Z,100430.95
2019-01-31T18:59:43.463Z,100430.97
2019-01-31T19:02:13.160Z,100424.71
2019-01-31T19:04:44.239Z,100426.84
2019-01-31T19:07:15.633Z,100424.77
2019-01-31T19:09:47.422Z,100427.67
2019-01-31T19:12:17.040Z,100420.09
2019-01-31T19:14:47.017Z,100430.14
2019-01-31T19:17:17.434Z,100430.39
2019-01-31T19:19:47.220Z,100430.94
2019-01-31T19:22:16.929Z,100427.59
2019-01-31T19:24:46.628Z,100420.53
2019-01-31T19:27:16.397Z,100409.67
2019-01-31T19:29:48.288Z,100413.50
2019-01-31T19:32:17.920Z,100419.39
2019-01-31T19:34:47.810Z,100412.69
2019-01-31T19:37:17.661Z,100416.52
2019-01-31T19:39:48.206Z,100417.78
2019-01-31T19:42:17.836Z,100417.83
2019-01-31T19:44:47.628Z,100411.55
2019-01-31T19:47:19.570Z,100411.57
2019-01-31T19:49:49.270Z,100409.89
2019-01-31T19:52:19.054Z,100410.67
2019-01-31T19:54:49.786Z,100410.25
2019-01-31T19:57:19.415Z,100403.97
2019-01-31T19:59:49.238Z,100407.33
2019-01-31T20:02:18.881Z,100407.80
2019-01-31T20:04:48.518Z,100399.42
2019-01-31T20:07:18.183Z,100390.22
2019-01-31T20:09:47.832Z,100397.20
2019-01-31T20:12:17.464Z,100397.01
2019-01-31T20:14:48.332Z,100397.38
2019-01-31T20:17:22.121Z,100401.62
2019-01-31T20:19:51.860Z,100399.97
2019-01-31T20:22:21.601Z,100405.41
2019-01-31T20:24:51.780Z,100405.47
2019-01-31T20:27:21.833Z,100404.70
2019-01-31T20:29:51.520Z,100400.25
2019-01-31T20:32:21.159Z,100402.50
2019-01-31T20:34:50.798Z,100401.41
2019-01-31T20:37:20.467Z,100396.53
2019-01-31T20:39:50.983Z,100397.45
2019-01-31T20:42:20.611Z,100400.11
2019-01-31T20:44:50.654Z,100399.41
2019-01-31T20:47:20.283Z,100398.30
2019-01-31T20:49:49.858Z,100396.65
2019-01-31T20:52:20.034Z,100393.77
2019-01-31T20:54:49.682Z,100403.41
2019-01-31T20:57:21.299Z,100403.03
2019-01-31T20:59:51.041Z,100397.19
2019-01-31T21:02:21.941Z,100404.23
2019-01-31T21:04:53.288Z,100412.59
2019-01-31T21:07:23.053Z,100408.88
2019-01-31T21:09:54.680Z,100417.19
2019-01-31T21:12:24.313Z,100423.88
2019-01-31T21:14:55.672Z,100425.95
2019-01-31T21:17:26.282Z,100432.09
2019-01-31T21:19:56.069Z,100424.72
2019-01-31T21:22:26.517Z,100425.90
2019-01-31T21:24:56.139Z,100420.88
2019-01-31T21:27:25.787Z,100418.42
2019-01-31T21:29:57.110Z,100409.59
2019-01-31T21:32:26.745Z,100413.78
2019-01-31T21:34:57.322Z,100407.55
2019-01-31T21:37:27.017Z,100403.73
2019-01-31T21:39:56.644Z,100412.09
2019-01-31T21:42:27.517Z,100413.70
2019-01-31T21:45:19.285Z,100410.75
2019-01-31T21:47:50.275Z,100411.53
2019-01-31T21:50:22.956Z,100415.64
2019-01-31T21:52:55.615Z,100411.40
2019-01-31T21:55:25.489Z,100416.42
2019-01-31T21:58:06.940Z,100407.63
2019-01-31T22:00:37.296Z,100405.95
2019-01-31T22:03:11.029Z,100405.12
2019-01-31T22:05:47.029Z,100407.19
2019-01-31T22:08:18.101Z,100409.70
2019-01-31T22:10:47.731Z,100411.38
2019-01-31T22:13:17.649Z,100409.30
2019-01-31T22:15:47.469Z,100408.47
2019-01-31T22:18:17.938Z,100410.95
2019-01-31T22:20:48.342Z,100408.09
2019-01-31T22:23:18.272Z,100408.52
2019-01-31T22:25:47.895Z,100408.89
2019-01-31T22:28:17.651Z,100403.56
2019-01-31T22:30:47.951Z,100401.83
2019-01-31T22:33:17.592Z,100403.09
2019-01-31T22:35:47.530Z,100397.17
2019-01-31T22:38:18.707Z,100398.55
2019-01-31T22:40:48.332Z,100393.52
2019-01-31T22:43:17.980Z,100391.02
2019-01-31T22:45:50.118Z,100398.92
2019-01-31T22:48:19.918Z,100395.98
2019-01-31T22:50:49.544Z,100398.55
2019-01-31T22:53:19.213Z,100394.80
2019-01-31T22:55:49.182Z,100392.77
2019-01-31T22:58:18.800Z,100393.56
2019-01-31T23:01:10.931Z,100391.52
2019-01-31T23:03:41.011Z,100388.19
2019-01-31T23:06:10.903Z,100387.76
2019-01-31T23:08:40.575Z,100383.70
2019-01-31T23:11:10.226Z,100391.54
2019-01-31T23:13:40.338Z,100389.87
2019-01-31T23:16:10.169Z,100385.30
2019-01-31T23:18:39.834Z,100381.54
2019-01-31T23:21:09.606Z,100375.33
2019-01-31T23:23:39.558Z,100374.55
2019-01-31T23:26:09.258Z,100376.66
2019-01-31T23:28:39.009Z,100372.12
2019-01-31T23:31:08.675Z,100375.05
2019-01-31T23:33:41.084Z,100379.23
2019-01-31T23:36:09.640Z,100374.64
2019-01-31T23:38:39.331Z,100377.20
2019-01-31T23:41:09.706Z,100375.55
2019-01-31T23:43:39.466Z,100371.80
2019-01-31T23:46:09.725Z,100373.13
2019-01-31T23:48:40.448Z,100363.97
2019-01-31T23:51:10.346Z,100366.50
2019-01-31T23:53:40.037Z,100362.73
2019-01-31T23:56:10.036Z,100358.19
2019-01-31T23:58:40.178Z,100360.30
